createdAt,value
2024-03-28T00:00:52.741Z,13
2024-03-28T00:06:32.917Z,12.9
2024-03-28T00:12:07.783Z,12.9
2024-03-28T00:17:42.761Z,12.9
2024-03-28T00:23:18.225Z,12.9
2024-03-28T00:28:53.334Z,12.9
2024-03-28T00:34:28.095Z,12.8
2024-03-28T00:40:02.971Z,12.8
2024-03-28T00:45:38.717Z,12.7
2024-03-28T00:51:13.867Z,12.7
2024-03-28T00:56:48.904Z,12.7
2024-03-28T01:02:24.506Z,12.7
2024-03-28T01:08:00.049Z,12.7
2024-03-28T01:13:35.186Z,12.6
2024-03-28T01:19:10.818Z,12.6
2024-03-28T01:24:46.725Z,12.6
2024-03-28T01:30:21.661Z,12.5
2024-03-28T01:35:56.724Z,12.5
2024-03-28T01:41:31.962Z,12.6
2024-03-28T01:47:17.051Z,12.5
2024-03-28T01:53:38.011Z,12.5
2024-03-28T01:59:13.193Z,12.5
2024-03-28T02:04:48.716Z,12.5
2024-03-28T02:10:24.162Z,12.4
2024-03-28T02:15:59.161Z,12.4
2024-03-28T02:21:34.422Z,12.3
2024-03-28T02:27:10.308Z,12.3
2024-03-28T02:32:45.201Z,12.2
2024-03-28T02:38:20.421Z,12.2
2024-03-28T02:43:55.869Z,12.1
2024-03-28T02:49:30.834Z,12.1
2024-03-28T02:55:05.943Z,12.1
2024-03-28T03:00:41.212Z,12
2024-03-28T03:06:16.048Z,11.9
2024-03-28T03:11:50.949Z,11.9
2024-03-28T03:17:26.102Z,11.8
2024-03-28T03:23:01.399Z,11.8
2024-03-28T03:28:36.587Z,11.7
2024-03-28T03:34:12.230Z,11.7
2024-03-28T03:39:47.498Z,11.7
2024-03-28T03:45:22.872Z,11.6
2024-03-28T03:50:58.118Z,11.5
2024-03-28T03:56:33.703Z,11.5
2024-03-28T04:02:08.807Z,11.5
2024-03-28T04:07:44.311Z,11.3
2024-03-28T04:13:19.066Z,11.3
2024-03-28T04:18:54.357Z,11.2
2024-03-28T04:24:29.504Z,11.2
2024-03-28T04:30:04.230Z,11.2
2024-03-28T04:35:39.430Z,11.1
2024-03-28T04:41:14.645Z,11.1
2024-03-28T04:46:49.534Z,11.1
2024-03-28T04:52:24.475Z,11.1
2024-03-28T04:57:59.951Z,11.1
2024-03-28T05:03:34.954Z,11
2024-03-28T05:09:09.888Z,11
2024-03-28T05:14:45.231Z,11
2024-03-28T05:20:20.053Z,11.1
2024-03-28T05:25:55.401Z,11.1
2024-03-28T05:31:31.397Z,11
2024-03-28T05:37:06.400Z,11.1
2024-03-28T05:42:43.790Z,11.1
2024-03-28T05:48:22.964Z,11.1
2024-03-28T05:53:57.957Z,11.2
2024-03-28T05:59:32.873Z,11.3
2024-03-28T06:05:08.934Z,10.9
2024-03-28T06:10:44.573Z,10.6
2024-03-28T06:16:25.508Z,10.7
2024-03-28T06:22:02.320Z,10.7
2024-03-28T06:27:37.356Z,10.8
2024-03-28T06:33:12.368Z,11.1
2024-03-28T06:38:47.559Z,11.3
2024-03-28T06:44:22.611Z,11.6
2024-03-28T06:49:57.835Z,11.8
2024-03-28T06:55:33.612Z,11.8
2024-03-28T07:01:08.401Z,11.7
2024-03-28T07:06:43.479Z,11.8
2024-03-28T07:12:18.829Z,12
2024-03-28T07:17:53.840Z,12.2
2024-03-28T07:23:29.065Z,12.4
2024-03-28T07:29:04.531Z,12.7
2024-03-28T07:34:40.790Z,13
2024-03-28T07:40:16.026Z,13.2
2024-03-28T07:45:51.855Z,13.2
2024-03-28T07:51:27.279Z,13.8
2024-03-28T07:57:01.953Z,13.9
2024-03-28T08:02:37.536Z,14.3
2024-03-28T08:08:13.132Z,14.4
2024-03-28T08:13:48.137Z,13.8
2024-03-28T08:19:23.579Z,13.8
2024-03-28T08:24:59.800Z,13.8
2024-03-28T08:30:35.321Z,13.8
2024-03-28T08:36:10.861Z,14.4
2024-03-28T08:41:46.165Z,14.8
2024-03-28T08:47:21.192Z,15.2
2024-03-28T08:52:59.739Z,15.2
2024-03-28T08:58:35.260Z,15.2
2024-03-28T09:04:10.689Z,15.9
2024-03-28T09:09:46.172Z,16.1
2024-03-28T09:15:21.249Z,16.4
2024-03-28T09:20:56.409Z,16.7
2024-03-28T09:26:31.961Z,16.9
2024-03-28T09:32:07.200Z,16.9
2024-03-28T09:37:42.015Z,17.1
2024-03-28T09:43:17.548Z,16.9
2024-03-28T09:48:52.458Z,17.2
2024-03-28T09:54:27.464Z,17.5
2024-03-28T10:00:02.775Z,17.7
2024-03-28T10:05:37.726Z,17.7
2024-03-28T10:11:12.818Z,17.9
2024-03-28T10:16:48.320Z,17.8
2024-03-28T10:22:23.107Z,18.1
2024-03-28T10:27:58.086Z,17.6
2024-03-28T10:33:33.257Z,17.8
2024-03-28T10:39:08.450Z,17.6
2024-03-28T10:44:43.383Z,17.9
2024-03-28T10:50:18.870Z,17.9
2024-03-28T10:55:54.113Z,18.6
2024-03-28T11:01:29.166Z,18.8
2024-03-28T11:07:13.346Z,19.4
2024-03-28T11:12:51.848Z,19.6
2024-03-28T11:18:26.891Z,19.5
2024-03-28T11:24:02.954Z,19.5
2024-03-28T11:29:38.047Z,19.2
2024-03-28T11:35:13.331Z,19.4
2024-03-28T11:40:48.807Z,20.3
2024-03-28T11:46:23.791Z,20.7
2024-03-28T11:51:59.002Z,20.4
2024-03-28T11:57:34.715Z,20.1
2024-03-28T12:03:09.583Z,19.6
2024-03-28T12:08:45.377Z,20.1
2024-03-28T12:14:20.557Z,20.5
2024-03-28T12:19:55.779Z,20.6
2024-03-28T12:25:31.234Z,21.1
2024-03-28T12:31:08.036Z,20.9
2024-03-28T12:36:43.020Z,20.6
2024-03-28T12:42:18.116Z,21
2024-03-28T12:47:53.125Z,22.4
2024-03-28T12:53:28.131Z,22.8
2024-03-28T12:59:03.888Z,23.5
2024-03-28T13:04:39.804Z,23.1
2024-03-28T13:10:15.801Z,23.9
2024-03-28T13:15:50.926Z,23.5
2024-03-28T13:21:26.685Z,24.2
2024-03-28T13:27:16.835Z,24.4
2024-03-28T13:33:21.102Z,23.3
2024-03-28T13:38:56.874Z,24.1
2024-03-28T13:44:32.133Z,24.3
2024-03-28T13:50:07.420Z,23.5
2024-03-28T13:55:43.201Z,23.2
2024-03-28T14:01:18.951Z,22.7
2024-03-28T14:06:54.419Z,22.4
2024-03-28T14:12:29.917Z,22.2
2024-03-28T14:18:05.014Z,22.2
2024-03-28T14:23:39.965Z,21.7
2024-03-28T14:29:15.769Z,21.9
2024-03-28T14:34:51.067Z,21.3
2024-03-28T14:40:26.250Z,21.2
2024-03-28T14:46:01.731Z,20.7
2024-03-28T14:51:36.721Z,21
2024-03-28T14:57:11.555Z,21.1
2024-03-28T15:02:46.714Z,23.2
2024-03-28T15:08:21.966Z,26.8
2024-03-28T15:13:57.178Z,27.8
2024-03-28T15:19:33.109Z,24.8
2024-03-28T15:25:08.292Z,24.1
2024-03-28T15:30:43.718Z,23.4
2024-03-28T15:36:20.611Z,23.6
2024-03-28T15:41:55.961Z,23.8
2024-03-28T15:47:31.244Z,23.3
2024-03-28T15:53:07.511Z,23.7
2024-03-28T15:58:42.627Z,23.2
2024-03-28T16:04:18.038Z,22.8
2024-03-28T16:09:53.282Z,23.5
2024-03-28T16:15:28.203Z,22.7
2024-03-28T16:21:03.349Z,22.4
2024-03-28T16:26:39.622Z,21.4
2024-03-28T16:32:16.000Z,20.7
2024-03-28T16:37:50.898Z,20.4
2024-03-28T16:43:26.222Z,20
2024-03-28T16:49:01.090Z,20.1
2024-03-28T16:54:37.031Z,19.6
2024-03-28T17:00:12.301Z,19.3
2024-03-28T17:05:47.552Z,19.3
2024-03-28T17:11:23.176Z,19.8
2024-03-28T17:16:58.406Z,19.4
2024-03-28T17:22:33.366Z,19.6
2024-03-28T17:28:11.560Z,18.8
2024-03-28T17:33:46.757Z,18.7
2024-03-28T17:39:21.686Z,18.5
2024-03-28T17:44:56.688Z,18.2
2024-03-28T17:50:33.418Z,18.4
2024-03-28T17:56:10.729Z,18.6
2024-03-28T18:01:49.262Z,18.5
2024-03-28T18:07:25.198Z,18.4
2024-03-28T18:13:00.432Z,18.3
2024-03-28T18:18:35.514Z,18.2
2024-03-28T18:24:10.763Z,18.1
2024-03-28T18:29:46.408Z,18.1
2024-03-28T18:35:24.762Z,17.9
2024-03-28T18:41:03.649Z,17.9
2024-03-28T18:46:38.713Z,18
2024-03-28T18:52:13.857Z,18.1
2024-03-28T18:57:49.275Z,18.1
2024-03-28T19:03:24.590Z,18.1
2024-03-28T19:08:59.829Z,18.1
2024-03-28T19:14:34.981Z,18.1
2024-03-28T19:20:10.480Z,18.1
2024-03-28T19:25:45.346Z,18.1
2024-03-28T19:31:20.835Z,18.1
2024-03-28T19:36:55.659Z,18.1
2024-03-28T19:42:30.431Z,18
2024-03-28T19:48:05.797Z,18
2024-03-28T19:53:41.090Z,17.9
2024-03-28T19:59:15.890Z,17.8
2024-03-28T20:04:51.162Z,17.8
2024-03-28T20:10:27.299Z,17.9
2024-03-28T20:16:02.694Z,17.8
2024-03-28T20:21:37.634Z,17.7
2024-03-28T20:27:12.572Z,17.6
2024-03-28T20:32:47.492Z,17.5
2024-03-28T20:38:22.737Z,17.5
2024-03-28T20:43:57.626Z,17.4
2024-03-28T20:49:32.577Z,17.4
2024-03-28T20:55:07.719Z,17.3
2024-03-28T21:00:42.843Z,17.3
2024-03-28T21:06:17.698Z,17.5
2024-03-28T21:11:53.294Z,17.6
2024-03-28T21:17:28.447Z,17.6
2024-03-28T21:23:03.798Z,17.7
2024-03-28T21:28:38.920Z,17.7
2024-03-28T21:34:13.872Z,17.7
2024-03-28T21:39:48.937Z,17.8
2024-03-28T21:45:24.388Z,17.8
2024-03-28T21:50:59.305Z,17.8
2024-03-28T21:56:34.833Z,17.8
2024-03-28T22:02:10.368Z,17.7
2024-03-28T22:07:45.534Z,17.6
2024-03-28T22:13:20.688Z,17.6
2024-03-28T22:18:55.967Z,17.5
2024-03-28T22:24:31.005Z,17.5
2024-03-28T22:30:06.242Z,17.5
2024-03-28T22:35:41.848Z,17.5
2024-03-28T22:41:16.792Z,17.5
2024-03-28T22:46:51.807Z,17.5
2024-03-28T22:52:26.721Z,17.6
2024-03-28T22:58:01.725Z,17.6
2024-03-28T23:03:36.897Z,17.5
2024-03-28T23:09:12.072Z,17.5
2024-03-28T23:14:47.141Z,17.5
2024-03-28T23:20:22.386Z,17.5
2024-03-28T23:25:58.256Z,17.5
2024-03-28T23:31:35.110Z,17.5
2024-03-28T23:37:15.637Z,17.4
2024-03-28T23:42:51.171Z,17.4
2024-03-28T23:48:26.396Z,17.4
2024-03-28T23:54:01.797Z,17.4
2024-03-28T23:59:37.815Z,17.4
